createdAt,value
2018-05-08T00:01:10.936Z,53.90
2018-05-08T00:06:39.896Z,54.00
2018-05-08T00:12:08.023Z,54.00
2018-05-08T00:17:36.157Z,54.10
2018-05-08T00:23:04.379Z,54.20
2018-05-08T00:28:32.569Z,54.00
2018-05-08T00:34:00.733Z,54.20
2018-05-08T00:39:28.881Z,54.10
2018-05-08T00:44:57.789Z,54.10
2018-05-08T00:50:25.936Z,54.10
2018-05-08T00:55:54.861Z,54.00
2018-05-08T01:01:23.001Z,54.00
2018-05-08T01:06:51.934Z,54.00
2018-05-08T01:12:20.844Z,53.90
2018-05-08T01:17:48.984Z,53.80
2018-05-08T01:23:17.137Z,53.80
2018-05-08T01:28:45.286Z,53.90
2018-05-08T01:34:13.444Z,53.90
2018-05-08T01:39:42.349Z,54.10
2018-05-08T01:45:10.491Z,53.80
2018-05-08T01:50:38.669Z,53.90
2018-05-08T01:56:06.840Z,53.80
2018-05-08T02:01:36.702Z,54.00
2018-05-08T02:07:05.652Z,54.00
2018-05-08T02:12:34.573Z,54.20
2018-05-08T02:18:02.939Z,54.20
2018-05-08T02:23:31.138Z,54.30
2018-05-08T02:28:59.286Z,54.40
2018-05-08T02:34:27.419Z,54.60
2018-05-08T02:39:55.593Z,54.60
2018-05-08T02:45:23.731Z,54.70
2018-05-08T02:50:51.872Z,55.00
2018-05-08T02:56:20.024Z,55.10
2018-05-08T03:01:48.151Z,55.30
2018-05-08T03:07:16.502Z,55.50
2018-05-08T03:12:45.425Z,55.50
2018-05-08T03:18:14.343Z,55.80
2018-05-08T03:23:42.485Z,55.70
2018-05-08T03:29:11.495Z,56.10
2018-05-08T03:34:39.676Z,56.00
2018-05-08T03:40:07.903Z,56.10
2018-05-08T03:45:36.039Z,56.20
2018-05-08T03:51:05.332Z,56.90
2018-05-08T03:56:34.282Z,56.60
2018-05-08T04:02:20.212Z,56.60
2018-05-08T04:08:07.139Z,56.80
2018-05-08T04:13:35.295Z,56.80
2018-05-08T04:19:04.235Z,57.10
2018-05-08T04:24:32.423Z,57.10
2018-05-08T04:30:01.647Z,57.30
2018-05-08T04:35:29.826Z,57.20
2018-05-08T04:40:58.047Z,57.20
2018-05-08T04:46:26.191Z,57.40
2018-05-08T04:51:54.329Z,57.30
2018-05-08T04:57:22.511Z,57.10
2018-05-08T05:02:50.670Z,57.20
2018-05-08T05:08:18.837Z,57.00
2018-05-08T05:13:47.748Z,56.70
2018-05-08T05:19:15.882Z,56.70
2018-05-08T05:24:44.793Z,56.30
2018-05-08T05:30:12.939Z,56.30
2018-05-08T05:35:41.852Z,55.60
2018-05-08T05:41:09.996Z,55.60
2018-05-08T05:46:38.897Z,54.40
2018-05-08T05:52:07.046Z,54.40
2018-05-08T05:57:35.970Z,54.10
2018-05-08T06:03:04.150Z,53.70
2018-05-08T06:08:32.305Z,52.90
2018-05-08T06:14:00.553Z,52.60
2018-05-08T06:19:29.478Z,50.90
2018-05-08T06:24:57.646Z,50.90
2018-05-08T06:30:25.790Z,50.90
2018-05-08T06:35:53.927Z,51.30
2018-05-08T06:41:22.082Z,50.70
2018-05-08T06:46:50.233Z,49.70
2018-05-08T06:52:18.374Z,50.10
2018-05-08T06:57:46.521Z,49.70
2018-05-08T07:03:14.650Z,49.40
2018-05-08T07:08:43.548Z,48.80
2018-05-08T07:14:11.703Z,48.70
2018-05-08T07:19:39.848Z,49.20
2018-05-08T07:25:07.998Z,48.50
2018-05-08T07:30:36.175Z,48.80
2018-05-08T07:36:05.092Z,47.70
2018-05-08T07:41:33.255Z,47.60
2018-05-08T07:47:01.426Z,46.80
2018-05-08T07:52:31.519Z,45.60
2018-05-08T07:58:00.484Z,45.10
2018-05-08T08:03:28.697Z,45.10
2018-05-08T08:08:56.764Z,44.80
2018-05-08T08:14:24.927Z,44.80
2018-05-08T08:19:53.088Z,43.90
2018-05-08T08:25:21.213Z,43.80
2018-05-08T08:30:49.363Z,42.90
2018-05-08T08:36:18.276Z,42.60
2018-05-08T08:41:46.416Z,42.50
2018-05-08T08:47:14.558Z,42.30
2018-05-08T08:52:42.709Z,42.30
2018-05-08T08:58:10.873Z,41.50
2018-05-08T09:03:39.050Z,41.50
2018-05-08T09:09:07.208Z,42.30
2018-05-08T09:14:35.351Z,41.20
2018-05-08T09:20:03.522Z,40.10
2018-05-08T09:25:31.686Z,38.80
2018-05-08T09:31:00.621Z,38.30
2018-05-08T09:36:29.512Z,37.10
2018-05-08T09:41:57.664Z,37.00
2018-05-08T09:47:25.820Z,36.20
2018-05-08T09:52:53.940Z,36.10
2018-05-08T09:58:22.099Z,35.20
2018-05-08T10:03:50.243Z,35.40
2018-05-08T10:09:19.141Z,34.20
2018-05-08T10:14:47.280Z,33.60
2018-05-08T10:20:15.425Z,33.00
2018-05-08T10:25:44.361Z,32.40
2018-05-08T10:31:13.285Z,31.30
2018-05-08T10:36:41.441Z,31.20
2018-05-08T10:42:09.592Z,30.90
2018-05-08T10:47:37.757Z,30.50
2018-05-08T10:53:06.656Z,29.80
2018-05-08T10:58:34.814Z,29.80
2018-05-08T11:04:03.737Z,29.20
2018-05-08T11:09:31.920Z,29.20
2018-05-08T11:15:00.070Z,30.50
2018-05-08T11:20:28.208Z,28.90
2018-05-08T11:25:57.121Z,29.80
2018-05-08T11:31:25.255Z,29.70
2018-05-08T11:36:53.392Z,30.00
2018-05-08T11:42:22.311Z,28.90
2018-05-08T11:47:50.454Z,28.90
2018-05-08T11:53:19.358Z,28.00
2018-05-08T11:58:47.505Z,28.00
2018-05-08T12:04:16.408Z,29.00
2018-05-08T12:09:44.562Z,29.00
2018-05-08T12:15:13.448Z,29.10
2018-05-08T12:20:42.864Z,29.00
2018-05-08T12:26:11.003Z,29.50
2018-05-08T12:31:39.919Z,30.00
2018-05-08T12:37:08.845Z,28.60
2018-05-08T12:42:37.774Z,27.50
2018-05-08T12:48:06.693Z,27.70
2018-05-08T12:53:34.878Z,27.60
2018-05-08T12:59:03.120Z,27.70
2018-05-08T13:04:31.245Z,27.60
2018-05-08T13:09:59.374Z,27.60
2018-05-08T13:15:27.534Z,28.20
2018-05-08T13:20:55.667Z,28.30
2018-05-08T13:26:23.808Z,28.80
2018-05-08T13:31:51.936Z,29.30
2018-05-08T13:37:20.099Z,29.00
2018-05-08T13:42:49.020Z,29.30
2018-05-08T13:48:17.182Z,29.20
2018-05-08T13:53:45.321Z,29.60
2018-05-08T13:59:13.464Z,29.60
2018-05-08T14:04:41.599Z,29.70
2018-05-08T14:10:09.766Z,29.50
2018-05-08T14:15:37.909Z,29.20
2018-05-08T14:21:06.100Z,29.30
2018-05-08T14:26:34.273Z,28.50
2018-05-08T14:32:02.481Z,28.70
2018-05-08T14:37:30.666Z,28.70
2018-05-08T14:42:58.808Z,29.20
2018-05-08T14:48:26.968Z,25.70
2018-05-08T14:53:55.866Z,22.80
2018-05-08T14:59:24.013Z,22.70
2018-05-08T15:04:52.170Z,22.20
2018-05-08T15:10:20.309Z,24.50
2018-05-08T15:15:48.454Z,25.40
2018-05-08T15:21:16.603Z,26.10
2018-05-08T15:26:44.752Z,26.80
2018-05-08T15:32:13.005Z,27.80
2018-05-08T15:37:41.149Z,28.70
2018-05-08T15:43:09.304Z,29.10
2018-05-08T15:48:37.475Z,29.10
2018-05-08T15:54:05.669Z,28.70
2018-05-08T15:59:33.866Z,28.80
2018-05-08T16:05:02.051Z,29.80
2018-05-08T16:10:31.371Z,30.60
2018-05-08T16:15:59.527Z,31.40
2018-05-08T16:21:28.440Z,32.30
2018-05-08T16:26:56.571Z,32.20
2018-05-08T16:32:25.105Z,32.30
2018-05-08T16:37:53.254Z,32.30
2018-05-08T16:43:22.177Z,33.10
2018-05-08T16:48:51.103Z,33.00
2018-05-08T16:54:20.020Z,33.00
2018-05-08T16:59:48.156Z,32.90
2018-05-08T17:05:16.295Z,33.40
2018-05-08T17:10:45.211Z,34.30
2018-05-08T17:16:13.372Z,34.20
2018-05-08T17:21:41.541Z,34.90
2018-05-08T17:27:09.708Z,35.80
2018-05-08T17:32:38.946Z,37.00
2018-05-08T17:38:07.156Z,37.90
2018-05-08T17:43:36.168Z,38.80
2018-05-08T17:49:04.353Z,38.70
2018-05-08T17:54:32.642Z,39.30
2018-05-08T18:00:02.558Z,40.60
2018-05-08T18:05:32.905Z,40.00
2018-05-08T18:11:01.132Z,40.60
2018-05-08T18:16:29.295Z,41.00
2018-05-08T18:21:57.454Z,41.40
2018-05-08T18:27:26.464Z,42.10
2018-05-08T18:32:54.634Z,42.00
2018-05-08T18:38:22.768Z,42.40
2018-05-08T18:43:51.778Z,43.10
2018-05-08T18:49:19.970Z,43.10
2018-05-08T18:54:48.026Z,43.40
2018-05-08T19:00:21.227Z,43.80
2018-05-08T19:05:49.373Z,44.20
2018-05-08T19:11:23.226Z,44.60
2018-05-08T19:16:51.359Z,44.80
2018-05-08T19:22:19.496Z,45.20
2018-05-08T19:27:47.625Z,46.10
2018-05-08T19:33:15.778Z,45.90
2018-05-08T19:38:43.932Z,46.20
2018-05-08T19:44:12.087Z,46.30
2018-05-08T19:49:40.304Z,46.50
2018-05-08T19:55:08.618Z,46.70
2018-05-08T20:00:36.910Z,46.90
2018-05-08T20:06:05.085Z,47.10
2018-05-08T20:11:33.262Z,47.30
2018-05-08T20:17:02.346Z,47.70
2018-05-08T20:22:30.513Z,47.70
2018-05-08T20:27:58.690Z,47.90
2018-05-08T20:33:26.821Z,48.10
2018-05-08T20:38:54.966Z,48.40
2018-05-08T20:44:23.097Z,48.90
2018-05-08T20:49:51.264Z,48.90
2018-05-08T20:55:19.438Z,49.20
2018-05-08T21:00:47.694Z,49.30
2018-05-08T21:06:15.859Z,49.50
2018-05-08T21:11:44.781Z,49.60
2018-05-08T21:17:13.780Z,49.80
2018-05-08T21:22:41.980Z,49.80
2018-05-08T21:28:15.852Z,49.90
2018-05-08T21:33:44.409Z,50.20
2018-05-08T21:39:12.566Z,50.40
2018-05-08T21:44:40.736Z,50.70
2018-05-08T21:50:08.881Z,51.40
2018-05-08T21:55:37.865Z,51.10
2018-05-08T22:01:06.001Z,51.20
2018-05-08T22:06:34.165Z,53.20
2018-05-08T22:12:02.441Z,52.00
2018-05-08T22:17:30.586Z,51.90
2018-05-08T22:22:59.521Z,51.80
2018-05-08T22:28:27.665Z,51.70
2018-05-08T22:33:55.807Z,51.80
2018-05-08T22:39:23.958Z,51.70
2018-05-08T22:44:52.119Z,51.70
2018-05-08T22:50:21.020Z,51.90
2018-05-08T22:55:49.168Z,51.60
2018-05-08T23:01:17.312Z,51.70
2018-05-08T23:06:45.436Z,52.30
2018-05-08T23:12:13.570Z,51.90
2018-05-08T23:17:41.720Z,52.00
2018-05-08T23:23:09.896Z,52.30
2018-05-08T23:28:38.047Z,52.20
2018-05-08T23:34:06.261Z,52.50
2018-05-08T23:39:35.172Z,52.40
2018-05-08T23:45:03.346Z,52.40
2018-05-08T23:50:31.542Z,52.60
2018-05-08T23:55:59.691Z,52.80
